Terminal Aerodrome Forecast
Issued by NWS

Home | Current Version | Previous Version | Graphics & Text | Print | Product List | Glossary On
Versions: 1 2 3 4 5 6 7 8 9 10 11 12 13 14 15
000
FTUS43 KICT 291721
TAFRSL
TAF
KRSL 291721Z 2918/3018 16010KT P6SM SKC
      TEMPO 2919/2923 17015G22KT
     FM300000 19010KT P6SM SKC
     FM300700 23010KT P6SM SCT250
     FM301000 33013KT P6SM SKC=

USA.gov is the U.S. government's official web portal to all federal, state and local government web resources and services.